sensor_id;sensor_type;location;lat;lon;timestamp;P1;durP1;ratioP1;P2;durP2;ratioP2
18304;SDS011;9278;52.156;21.048;2022-08-19T00:01:45;26.08;;;14.00;;
18304;SDS011;9278;52.156;21.048;2022-08-19T00:04:19;20.85;;;14.43;;
18304;SDS011;9278;52.156;21.048;2022-08-19T00:06:51;23.33;;;16.55;;
18304;SDS011;9278;52.156;21.048;2022-08-19T00:09:20;38.80;;;22.35;;
18304;SDS011;9278;52.156;21.048;2022-08-19T00:11:50;23.27;;;15.75;;
18304;SDS011;9278;52.156;21.048;2022-08-19T00:14:20;24.17;;;16.13;;
18304;SDS011;9278;52.156;21.048;2022-08-19T00:16:48;28.98;;;15.40;;
18304;SDS011;9278;52.156;21.048;2022-08-19T00:19:17;28.65;;;16.88;;
18304;SDS011;9278;52.156;21.048;2022-08-19T00:21:45;23.77;;;14.00;;
18304;SDS011;9278;52.156;21.048;2022-08-19T00:24:14;25.50;;;16.08;;
18304;SDS011;9278;52.156;21.048;2022-08-19T00:26:43;25.35;;;15.55;;
18304;SDS011;9278;52.156;21.048;2022-08-19T00:29:13;26.08;;;14.60;;
18304;SDS011;9278;52.156;21.048;2022-08-19T00:31:44;28.02;;;15.35;;
18304;SDS011;9278;52.156;21.048;2022-08-19T00:34:16;26.73;;;13.50;;
18304;SDS011;9278;52.156;21.048;2022-08-19T00:36:44;24.40;;;14.48;;
18304;SDS011;9278;52.156;21.048;2022-08-19T00:39:13;21.13;;;15.50;;
18304;SDS011;9278;52.156;21.048;2022-08-19T00:41:42;21.90;;;13.77;;
18304;SDS011;9278;52.156;21.048;2022-08-19T00:44:14;23.90;;;14.10;;
18304;SDS011;9278;52.156;21.048;2022-08-19T00:46:47;20.70;;;14.00;;
18304;SDS011;9278;52.156;21.048;2022-08-19T00:49:24;24.88;;;13.65;;
18304;SDS011;9278;52.156;21.048;2022-08-19T00:52:13;26.17;;;13.27;;
18304;SDS011;9278;52.156;21.048;2022-08-19T00:54:44;25.63;;;12.52;;
18304;SDS011;9278;52.156;21.048;2022-08-19T00:57:18;21.55;;;13.88;;
18304;SDS011;9278;52.156;21.048;2022-08-19T00:59:53;20.83;;;13.77;;
18304;SDS011;9278;52.156;21.048;2022-08-19T01:02:30;24.33;;;14.40;;
18304;SDS011;9278;52.156;21.048;2022-08-19T01:04:59;22.42;;;13.98;;
18304;SDS011;9278;52.156;21.048;2022-08-19T01:07:29;26.08;;;14.23;;
18304;SDS011;9278;52.156;21.048;2022-08-19T01:10:04;22.27;;;14.57;;
18304;SDS011;9278;52.156;21.048;2022-08-19T01:12:35;24.23;;;15.43;;
18304;SDS011;9278;52.156;21.048;2022-08-19T01:15:03;22.75;;;15.48;;
18304;SDS011;9278;52.156;21.048;2022-08-19T01:17:35;25.52;;;15.52;;
18304;SDS011;9278;52.156;21.048;2022-08-19T01:20:06;26.63;;;15.27;;
18304;SDS011;9278;52.156;21.048;2022-08-19T01:22:39;26.65;;;15.93;;
18304;SDS011;9278;52.156;21.048;2022-08-19T01:25:12;24.52;;;15.98;;
18304;SDS011;9278;52.156;21.048;2022-08-19T01:27:41;22.35;;;15.77;;
18304;SDS011;9278;52.156;21.048;2022-08-19T01:30:12;26.77;;;16.52;;
18304;SDS011;9278;52.156;21.048;2022-08-19T01:32:41;26.45;;;16.27;;
18304;SDS011;9278;52.156;21.048;2022-08-19T01:35:10;33.35;;;18.02;;
18304;SDS011;9278;52.156;21.048;2022-08-19T01:37:44;25.80;;;16.35;;
18304;SDS011;9278;52.156;21.048;2022-08-19T01:40:14;28.88;;;17.58;;
18304;SDS011;9278;52.156;21.048;2022-08-19T01:42:42;25.42;;;17.50;;
18304;SDS011;9278;52.156;21.048;2022-08-19T01:45:10;27.85;;;18.08;;
18304;SDS011;9278;52.156;21.048;2022-08-19T01:47:38;25.42;;;16.05;;
18304;SDS011;9278;52.156;21.048;2022-08-19T01:50:08;30.40;;;17.20;;
18304;SDS011;9278;52.156;21.048;2022-08-19T01:52:38;27.00;;;17.90;;
18304;SDS011;9278;52.156;21.048;2022-08-19T01:55:11;26.17;;;17.65;;
18304;SDS011;9278;52.156;21.048;2022-08-19T01:57:41;28.75;;;17.58;;
18304;SDS011;9278;52.156;21.048;2022-08-19T02:00:12;25.65;;;16.88;;
18304;SDS011;9278;52.156;21.048;2022-08-19T02:02:42;25.75;;;17.40;;
18304;SDS011;9278;52.156;21.048;2022-08-19T02:05:11;27.42;;;16.67;;
18304;SDS011;9278;52.156;21.048;2022-08-19T02:07:40;24.73;;;17.50;;
18304;SDS011;9278;52.156;21.048;2022-08-19T02:10:11;24.60;;;17.40;;
18304;SDS011;9278;52.156;21.048;2022-08-19T02:12:42;27.75;;;17.40;;
18304;SDS011;9278;52.156;21.048;2022-08-19T02:15:10;24.05;;;17.23;;
18304;SDS011;9278;52.156;21.048;2022-08-19T02:17:39;22.45;;;17.33;;
18304;SDS011;9278;52.156;21.048;2022-08-19T02:20:08;28.92;;;16.40;;
18304;SDS011;9278;52.156;21.048;2022-08-19T02:22:39;27.17;;;17.35;;
18304;SDS011;9278;52.156;21.048;2022-08-19T02:25:10;23.90;;;16.42;;
18304;SDS011;9278;52.156;21.048;2022-08-19T02:27:39;24.48;;;17.52;;
18304;SDS011;9278;52.156;21.048;2022-08-19T02:30:09;26.10;;;17.25;;
18304;SDS011;9278;52.156;21.048;2022-08-19T02:32:40;27.33;;;15.90;;
18304;SDS011;9278;52.156;21.048;2022-08-19T02:35:10;23.25;;;15.85;;
18304;SDS011;9278;52.156;21.048;2022-08-19T02:37:39;22.55;;;16.40;;
18304;SDS011;9278;52.156;21.048;2022-08-19T02:40:26;22.98;;;15.90;;
18304;SDS011;9278;52.156;21.048;2022-08-19T02:42:54;25.52;;;16.52;;
18304;SDS011;9278;52.156;21.048;2022-08-19T02:45:23;22.75;;;15.55;;
18304;SDS011;9278;52.156;21.048;2022-08-19T02:47:51;24.00;;;15.57;;
18304;SDS011;9278;52.156;21.048;2022-08-19T02:50:19;26.05;;;16.05;;
18304;SDS011;9278;52.156;21.048;2022-08-19T02:52:47;29.85;;;16.65;;
18304;SDS011;9278;52.156;21.048;2022-08-19T02:55:16;22.92;;;15.93;;
18304;SDS011;9278;52.156;21.048;2022-08-19T02:57:46;25.35;;;16.55;;
18304;SDS011;9278;52.156;21.048;2022-08-19T03:00:14;31.05;;;16.80;;
18304;SDS011;9278;52.156;21.048;2022-08-19T03:02:43;25.77;;;16.30;;
18304;SDS011;9278;52.156;21.048;2022-08-19T03:05:13;24.30;;;16.08;;
18304;SDS011;9278;52.156;21.048;2022-08-19T03:07:41;22.83;;;15.52;;
18304;SDS011;9278;52.156;21.048;2022-08-19T03:10:09;28.48;;;15.90;;
18304;SDS011;9278;52.156;21.048;2022-08-19T03:12:37;25.23;;;15.68;;
18304;SDS011;9278;52.156;21.048;2022-08-19T03:15:08;24.63;;;15.30;;
18304;SDS011;9278;52.156;21.048;2022-08-19T03:17:36;26.70;;;15.05;;
18304;SDS011;9278;52.156;21.048;2022-08-19T03:20:05;26.00;;;16.05;;
18304;SDS011;9278;52.156;21.048;2022-08-19T03:22:33;27.45;;;16.05;;
18304;SDS011;9278;52.156;21.048;2022-08-19T03:25:02;20.75;;;16.08;;
18304;SDS011;9278;52.156;21.048;2022-08-19T03:27:31;22.60;;;15.75;;
18304;SDS011;9278;52.156;21.048;2022-08-19T03:30:00;23.42;;;16.10;;
18304;SDS011;9278;52.156;21.048;2022-08-19T03:32:30;29.58;;;16.92;;
18304;SDS011;9278;52.156;21.048;2022-08-19T03:34:58;26.50;;;16.40;;
18304;SDS011;9278;52.156;21.048;2022-08-19T03:37:26;24.95;;;15.55;;
18304;SDS011;9278;52.156;21.048;2022-08-19T03:39:55;25.40;;;15.95;;
18304;SDS011;9278;52.156;21.048;2022-08-19T03:42:23;25.42;;;16.38;;
18304;SDS011;9278;52.156;21.048;2022-08-19T03:45:13;27.48;;;15.80;;
18304;SDS011;9278;52.156;21.048;2022-08-19T03:47:42;23.65;;;16.42;;
18304;SDS011;9278;52.156;21.048;2022-08-19T03:50:11;28.33;;;16.27;;
18304;SDS011;9278;52.156;21.048;2022-08-19T03:52:39;29.92;;;16.23;;
18304;SDS011;9278;52.156;21.048;2022-08-19T03:55:13;24.27;;;16.63;;
18304;SDS011;9278;52.156;21.048;2022-08-19T03:57:41;30.67;;;16.60;;
18304;SDS011;9278;52.156;21.048;2022-08-19T04:00:11;25.83;;;16.02;;
18304;SDS011;9278;52.156;21.048;2022-08-19T04:02:40;24.23;;;16.05;;
18304;SDS011;9278;52.156;21.048;2022-08-19T04:05:26;23.17;;;16.23;;
18304;SDS011;9278;52.156;21.048;2022-08-19T04:07:55;25.58;;;16.38;;
18304;SDS011;9278;52.156;21.048;2022-08-19T04:10:25;26.27;;;15.90;;
18304;SDS011;9278;52.156;21.048;2022-08-19T04:12:54;21.17;;;15.32;;
18304;SDS011;9278;52.156;21.048;2022-08-19T04:15:22;22.02;;;15.45;;
18304;SDS011;9278;52.156;21.048;2022-08-19T04:17:51;21.25;;;15.85;;
18304;SDS011;9278;52.156;21.048;2022-08-19T04:20:21;22.45;;;15.88;;
18304;SDS011;9278;52.156;21.048;2022-08-19T04:22:49;21.15;;;15.63;;
18304;SDS011;9278;52.156;21.048;2022-08-19T04:25:17;25.63;;;15.90;;
18304;SDS011;9278;52.156;21.048;2022-08-19T04:27:45;28.05;;;15.52;;
18304;SDS011;9278;52.156;21.048;2022-08-19T04:30:15;23.52;;;14.90;;
18304;SDS011;9278;52.156;21.048;2022-08-19T04:32:44;27.80;;;15.60;;
18304;SDS011;9278;52.156;21.048;2022-08-19T04:35:13;25.33;;;14.48;;
18304;SDS011;9278;52.156;21.048;2022-08-19T04:37:46;30.45;;;15.45;;
18304;SDS011;9278;52.156;21.048;2022-08-19T04:40:14;24.45;;;14.80;;
18304;SDS011;9278;52.156;21.048;2022-08-19T04:43:00;25.45;;;14.15;;
18304;SDS011;9278;52.156;21.048;2022-08-19T04:45:28;20.90;;;14.13;;
18304;SDS011;9278;52.156;21.048;2022-08-19T04:48:09;23.50;;;14.75;;
18304;SDS011;9278;52.156;21.048;2022-08-19T04:50:54;23.17;;;14.50;;
18304;SDS011;9278;52.156;21.048;2022-08-19T04:53:25;21.25;;;13.77;;
18304;SDS011;9278;52.156;21.048;2022-08-19T04:56:04;21.17;;;13.85;;
18304;SDS011;9278;52.156;21.048;2022-08-19T04:58:35;24.90;;;14.05;;
18304;SDS011;9278;52.156;21.048;2022-08-19T05:01:04;22.42;;;13.88;;
18304;SDS011;9278;52.156;21.048;2022-08-19T05:03:32;24.75;;;13.85;;
18304;SDS011;9278;52.156;21.048;2022-08-19T05:06:05;23.90;;;14.27;;
18304;SDS011;9278;52.156;21.048;2022-08-19T05:08:35;26.50;;;13.73;;
18304;SDS011;9278;52.156;21.048;2022-08-19T05:11:07;23.45;;;14.10;;
18304;SDS011;9278;52.156;21.048;2022-08-19T05:13:39;22.05;;;14.25;;
18304;SDS011;9278;52.156;21.048;2022-08-19T05:16:08;23.80;;;14.13;;
18304;SDS011;9278;52.156;21.048;2022-08-19T05:18:39;22.98;;;13.63;;
18304;SDS011;9278;52.156;21.048;2022-08-19T05:21:27;21.85;;;13.43;;
18304;SDS011;9278;52.156;21.048;2022-08-19T05:24:14;24.55;;;13.80;;
18304;SDS011;9278;52.156;21.048;2022-08-19T05:26:43;26.10;;;13.05;;
18304;SDS011;9278;52.156;21.048;2022-08-19T05:29:15;25.05;;;13.50;;
18304;SDS011;9278;52.156;21.048;2022-08-19T05:31:47;19.70;;;13.18;;
18304;SDS011;9278;52.156;21.048;2022-08-19T05:34:16;22.70;;;13.48;;
18304;SDS011;9278;52.156;21.048;2022-08-19T05:36:48;21.17;;;13.43;;
18304;SDS011;9278;52.156;21.048;2022-08-19T05:39:18;26.55;;;13.57;;
18304;SDS011;9278;52.156;21.048;2022-08-19T05:41:48;19.20;;;13.20;;
18304;SDS011;9278;52.156;21.048;2022-08-19T05:44:20;24.65;;;13.00;;
18304;SDS011;9278;52.156;21.048;2022-08-19T05:46:48;27.75;;;12.80;;
18304;SDS011;9278;52.156;21.048;2022-08-19T05:49:19;21.52;;;13.68;;
18304;SDS011;9278;52.156;21.048;2022-08-19T05:51:50;22.83;;;13.20;;
18304;SDS011;9278;52.156;21.048;2022-08-19T05:54:18;17.42;;;12.77;;
18304;SDS011;9278;52.156;21.048;2022-08-19T05:56:47;21.17;;;13.82;;
18304;SDS011;9278;52.156;21.048;2022-08-19T05:59:15;21.75;;;13.32;;
18304;SDS011;9278;52.156;21.048;2022-08-19T06:01:45;23.42;;;13.80;;
18304;SDS011;9278;52.156;21.048;2022-08-19T06:04:17;25.30;;;13.45;;
18304;SDS011;9278;52.156;21.048;2022-08-19T06:06:49;22.50;;;13.40;;
18304;SDS011;9278;52.156;21.048;2022-08-19T06:09:20;25.95;;;14.52;;
18304;SDS011;9278;52.156;21.048;2022-08-19T06:11:49;26.83;;;14.52;;
18304;SDS011;9278;52.156;21.048;2022-08-19T06:14:22;27.70;;;13.80;;
18304;SDS011;9278;52.156;21.048;2022-08-19T06:16:53;24.17;;;14.52;;
18304;SDS011;9278;52.156;21.048;2022-08-19T06:19:22;25.95;;;14.70;;
18304;SDS011;9278;52.156;21.048;2022-08-19T06:21:53;21.23;;;13.60;;
18304;SDS011;9278;52.156;21.048;2022-08-19T06:24:22;21.10;;;13.60;;
18304;SDS011;9278;52.156;21.048;2022-08-19T06:26:52;24.40;;;14.68;;
18304;SDS011;9278;52.156;21.048;2022-08-19T06:29:27;23.42;;;13.65;;
18304;SDS011;9278;52.156;21.048;2022-08-19T06:31:58;24.63;;;13.98;;
18304;SDS011;9278;52.156;21.048;2022-08-19T06:34:28;29.02;;;14.18;;
18304;SDS011;9278;52.156;21.048;2022-08-19T06:36:59;22.75;;;14.45;;
18304;SDS011;9278;52.156;21.048;2022-08-19T06:39:30;19.58;;;12.82;;
18304;SDS011;9278;52.156;21.048;2022-08-19T06:42:02;20.45;;;14.10;;
18304;SDS011;9278;52.156;21.048;2022-08-19T06:44:36;26.13;;;14.13;;
18304;SDS011;9278;52.156;21.048;2022-08-19T06:47:09;30.48;;;13.80;;
18304;SDS011;9278;52.156;21.048;2022-08-19T06:49:52;30.65;;;14.18;;
18304;SDS011;9278;52.156;21.048;2022-08-19T06:52:30;26.45;;;14.32;;
18304;SDS011;9278;52.156;21.048;2022-08-19T06:55:04;25.08;;;14.95;;
18304;SDS011;9278;52.156;21.048;2022-08-19T06:57:33;20.20;;;14.13;;
18304;SDS011;9278;52.156;21.048;2022-08-19T07:00:02;24.95;;;13.85;;
18304;SDS011;9278;52.156;21.048;2022-08-19T07:02:36;19.75;;;13.52;;
18304;SDS011;9278;52.156;21.048;2022-08-19T07:05:06;18.33;;;13.18;;
18304;SDS011;9278;52.156;21.048;2022-08-19T07:07:37;22.27;;;13.70;;
18304;SDS011;9278;52.156;21.048;2022-08-19T07:10:08;17.65;;;11.93;;
18304;SDS011;9278;52.156;21.048;2022-08-19T07:12:37;21.98;;;12.73;;
18304;SDS011;9278;52.156;21.048;2022-08-19T07:15:07;21.98;;;12.63;;
18304;SDS011;9278;52.156;21.048;2022-08-19T07:17:37;23.40;;;12.13;;
18304;SDS011;9278;52.156;21.048;2022-08-19T07:20:07;24.35;;;11.88;;
18304;SDS011;9278;52.156;21.048;2022-08-19T07:22:38;23.65;;;11.63;;
18304;SDS011;9278;52.156;21.048;2022-08-19T07:25:09;26.52;;;12.00;;
18304;SDS011;9278;52.156;21.048;2022-08-19T07:27:39;25.88;;;11.50;;
18304;SDS011;9278;52.156;21.048;2022-08-19T07:30:11;26.38;;;12.00;;
18304;SDS011;9278;52.156;21.048;2022-08-19T07:32:40;20.67;;;10.80;;
18304;SDS011;9278;52.156;21.048;2022-08-19T07:35:09;22.95;;;10.98;;
18304;SDS011;9278;52.156;21.048;2022-08-19T07:37:38;18.63;;;10.57;;
18304;SDS011;9278;52.156;21.048;2022-08-19T07:40:11;17.08;;;10.95;;
18304;SDS011;9278;52.156;21.048;2022-08-19T07:42:39;16.05;;;10.68;;
18304;SDS011;9278;52.156;21.048;2022-08-19T07:45:07;20.45;;;10.68;;
18304;SDS011;9278;52.156;21.048;2022-08-19T07:47:36;18.45;;;10.18;;
18304;SDS011;9278;52.156;21.048;2022-08-19T07:50:16;15.88;;;10.23;;
18304;SDS011;9278;52.156;21.048;2022-08-19T07:52:47;15.27;;;10.13;;
18304;SDS011;9278;52.156;21.048;2022-08-19T07:55:17;19.90;;;10.68;;
18304;SDS011;9278;52.156;21.048;2022-08-19T07:58:08;21.50;;;10.80;;
18304;SDS011;9278;52.156;21.048;2022-08-19T08:00:37;14.25;;;9.75;;
18304;SDS011;9278;52.156;21.048;2022-08-19T08:03:05;17.60;;;10.23;;
18304;SDS011;9278;52.156;21.048;2022-08-19T08:05:34;19.13;;;10.48;;
18304;SDS011;9278;52.156;21.048;2022-08-19T08:08:21;19.80;;;10.60;;
18304;SDS011;9278;52.156;21.048;2022-08-19T08:11:14;15.77;;;10.80;;
18304;SDS011;9278;52.156;21.048;2022-08-19T08:13:46;17.33;;;10.75;;
18304;SDS011;9278;52.156;21.048;2022-08-19T08:16:30;20.55;;;10.98;;
18304;SDS011;9278;52.156;21.048;2022-08-19T08:19:05;20.45;;;10.80;;
18304;SDS011;9278;52.156;21.048;2022-08-19T08:21:51;21.85;;;10.27;;
18304;SDS011;9278;52.156;21.048;2022-08-19T08:24:21;17.35;;;10.30;;
18304;SDS011;9278;52.156;21.048;2022-08-19T08:26:54;17.05;;;10.25;;
18304;SDS011;9278;52.156;21.048;2022-08-19T08:29:23;15.60;;;10.10;;
18304;SDS011;9278;52.156;21.048;2022-08-19T08:32:00;14.05;;;10.57;;
18304;SDS011;9278;52.156;21.048;2022-08-19T08:34:40;13.90;;;10.48;;
18304;SDS011;9278;52.156;21.048;2022-08-19T08:37:08;16.33;;;10.70;;
18304;SDS011;9278;52.156;21.048;2022-08-19T08:39:38;21.42;;;11.70;;
18304;SDS011;9278;52.156;21.048;2022-08-19T08:42:07;19.65;;;10.25;;
18304;SDS011;9278;52.156;21.048;2022-08-19T08:44:44;14.40;;;10.27;;
18304;SDS011;9278;52.156;21.048;2022-08-19T08:47:26;17.95;;;10.70;;
18304;SDS011;9278;52.156;21.048;2022-08-19T08:50:02;17.77;;;10.75;;
18304;SDS011;9278;52.156;21.048;2022-08-19T08:52:34;16.55;;;10.20;;
18304;SDS011;9278;52.156;21.048;2022-08-19T08:55:12;17.75;;;9.48;;
18304;SDS011;9278;52.156;21.048;2022-08-19T08:57:49;17.13;;;9.40;;
18304;SDS011;9278;52.156;21.048;2022-08-19T09:00:22;18.30;;;9.07;;
18304;SDS011;9278;52.156;21.048;2022-08-19T09:02:53;11.35;;;9.50;;
18304;SDS011;9278;52.156;21.048;2022-08-19T09:05:22;16.27;;;9.18;;
18304;SDS011;9278;52.156;21.048;2022-08-19T09:08:08;18.05;;;9.80;;
18304;SDS011;9278;52.156;21.048;2022-08-19T09:10:46;17.25;;;8.85;;
18304;SDS011;9278;52.156;21.048;2022-08-19T09:13:22;17.35;;;8.40;;
18304;SDS011;9278;52.156;21.048;2022-08-19T09:16:04;16.65;;;8.48;;
18304;SDS011;9278;52.156;21.048;2022-08-19T09:18:41;16.15;;;9.00;;
18304;SDS011;9278;52.156;21.048;2022-08-19T09:21:11;17.60;;;8.80;;
18304;SDS011;9278;52.156;21.048;2022-08-19T09:23:39;15.48;;;8.48;;
18304;SDS011;9278;52.156;21.048;2022-08-19T09:26:12;21.80;;;8.73;;
18304;SDS011;9278;52.156;21.048;2022-08-19T09:28:42;16.75;;;8.35;;
18304;SDS011;9278;52.156;21.048;2022-08-19T09:31:15;18.02;;;7.88;;
18304;SDS011;9278;52.156;21.048;2022-08-19T09:33:45;19.88;;;8.15;;
18304;SDS011;9278;52.156;21.048;2022-08-19T09:36:18;15.95;;;8.07;;
18304;SDS011;9278;52.156;21.048;2022-08-19T09:38:59;16.52;;;8.50;;
18304;SDS011;9278;52.156;21.048;2022-08-19T09:41:29;18.60;;;8.02;;
18304;SDS011;9278;52.156;21.048;2022-08-19T09:43:59;20.02;;;8.63;;
18304;SDS011;9278;52.156;21.048;2022-08-19T09:46:28;19.08;;;8.43;;
18304;SDS011;9278;52.156;21.048;2022-08-19T09:48:58;20.83;;;8.43;;
18304;SDS011;9278;52.156;21.048;2022-08-19T09:51:32;13.63;;;9.02;;
18304;SDS011;9278;52.156;21.048;2022-08-19T09:54:00;20.63;;;8.93;;
18304;SDS011;9278;52.156;21.048;2022-08-19T09:56:32;14.52;;;8.07;;
18304;SDS011;9278;52.156;21.048;2022-08-19T09:59:01;13.88;;;7.95;;
18304;SDS011;9278;52.156;21.048;2022-08-19T10:01:31;11.73;;;7.45;;
18304;SDS011;9278;52.156;21.048;2022-08-19T10:04:01;16.48;;;7.90;;
18304;SDS011;9278;52.156;21.048;2022-08-19T10:06:45;16.73;;;7.97;;
18304;SDS011;9278;52.156;21.048;2022-08-19T10:09:19;14.00;;;7.97;;
18304;SDS011;9278;52.156;21.048;2022-08-19T10:12:01;11.77;;;7.65;;
18304;SDS011;9278;52.156;21.048;2022-08-19T10:14:31;14.98;;;7.97;;
18304;SDS011;9278;52.156;21.048;2022-08-19T10:17:00;20.45;;;7.60;;
18304;SDS011;9278;52.156;21.048;2022-08-19T10:19:43;17.20;;;8.60;;
18304;SDS011;9278;52.156;21.048;2022-08-19T10:22:21;18.77;;;8.30;;
18304;SDS011;9278;52.156;21.048;2022-08-19T10:24:51;14.15;;;7.95;;
18304;SDS011;9278;52.156;21.048;2022-08-19T10:27:20;12.20;;;7.93;;
18304;SDS011;9278;52.156;21.048;2022-08-19T10:29:51;24.73;;;8.82;;
18304;SDS011;9278;52.156;21.048;2022-08-19T10:32:20;20.40;;;8.75;;
18304;SDS011;9278;52.156;21.048;2022-08-19T10:34:59;15.02;;;7.82;;
18304;SDS011;9278;52.156;21.048;2022-08-19T10:37:31;13.57;;;7.25;;
18304;SDS011;9278;52.156;21.048;2022-08-19T10:40:00;15.40;;;8.02;;
18304;SDS011;9278;52.156;21.048;2022-08-19T10:42:30;19.48;;;8.13;;
18304;SDS011;9278;52.156;21.048;2022-08-19T10:44:59;18.35;;;7.90;;
18304;SDS011;9278;52.156;21.048;2022-08-19T10:47:30;10.88;;;7.75;;
18304;SDS011;9278;52.156;21.048;2022-08-19T10:49:58;15.30;;;8.05;;
18304;SDS011;9278;52.156;21.048;2022-08-19T10:52:45;10.88;;;7.38;;
18304;SDS011;9278;52.156;21.048;2022-08-19T10:55:18;13.75;;;7.53;;
18304;SDS011;9278;52.156;21.048;2022-08-19T10:58:10;17.83;;;7.90;;
18304;SDS011;9278;52.156;21.048;2022-08-19T11:00:40;23.75;;;7.68;;
18304;SDS011;9278;52.156;21.048;2022-08-19T11:03:09;23.35;;;8.20;;
18304;SDS011;9278;52.156;21.048;2022-08-19T11:05:38;18.50;;;8.27;;
18304;SDS011;9278;52.156;21.048;2022-08-19T11:08:07;15.88;;;7.75;;
18304;SDS011;9278;52.156;21.048;2022-08-19T11:10:49;18.05;;;8.35;;
18304;SDS011;9278;52.156;21.048;2022-08-19T11:13:19;13.25;;;7.72;;
18304;SDS011;9278;52.156;21.048;2022-08-19T11:15:47;11.25;;;7.45;;
18304;SDS011;9278;52.156;21.048;2022-08-19T11:18:23;15.43;;;8.10;;
18304;SDS011;9278;52.156;21.048;2022-08-19T11:20:51;18.65;;;8.18;;
18304;SDS011;9278;52.156;21.048;2022-08-19T11:23:19;17.80;;;8.43;;
18304;SDS011;9278;52.156;21.048;2022-08-19T11:25:47;22.23;;;9.70;;
18304;SDS011;9278;52.156;21.048;2022-08-19T11:28:18;19.98;;;8.48;;
18304;SDS011;9278;52.156;21.048;2022-08-19T11:30:46;11.93;;;7.60;;
18304;SDS011;9278;52.156;21.048;2022-08-19T11:33:14;14.23;;;7.43;;
18304;SDS011;9278;52.156;21.048;2022-08-19T11:35:43;14.02;;;7.10;;
18304;SDS011;9278;52.156;21.048;2022-08-19T11:38:11;11.27;;;7.32;;
18304;SDS011;9278;52.156;21.048;2022-08-19T11:40:41;14.45;;;7.60;;
18304;SDS011;9278;52.156;21.048;2022-08-19T11:43:09;19.48;;;8.40;;
18304;SDS011;9278;52.156;21.048;2022-08-19T11:45:38;14.70;;;7.20;;
18304;SDS011;9278;52.156;21.048;2022-08-19T11:48:07;12.27;;;7.45;;
18304;SDS011;9278;52.156;21.048;2022-08-19T11:50:36;15.23;;;7.50;;
18304;SDS011;9278;52.156;21.048;2022-08-19T11:53:08;12.23;;;7.03;;
18304;SDS011;9278;52.156;21.048;2022-08-19T11:55:36;12.10;;;7.07;;
18304;SDS011;9278;52.156;21.048;2022-08-19T11:58:09;12.15;;;7.30;;
18304;SDS011;9278;52.156;21.048;2022-08-19T12:00:45;14.50;;;7.63;;
18304;SDS011;9278;52.156;21.048;2022-08-19T12:03:13;14.10;;;7.53;;
18304;SDS011;9278;52.156;21.048;2022-08-19T12:05:42;15.52;;;7.20;;
18304;SDS011;9278;52.156;21.048;2022-08-19T12:08:10;17.73;;;7.90;;
18304;SDS011;9278;52.156;21.048;2022-08-19T12:10:39;14.60;;;7.45;;
18304;SDS011;9278;52.156;21.048;2022-08-19T12:13:08;14.10;;;7.40;;
18304;SDS011;9278;52.156;21.048;2022-08-19T12:15:37;17.40;;;7.30;;
18304;SDS011;9278;52.156;21.048;2022-08-19T12:18:08;13.68;;;7.20;;
18304;SDS011;9278;52.156;21.048;2022-08-19T12:20:37;16.30;;;6.97;;
18304;SDS011;9278;52.156;21.048;2022-08-19T12:23:07;14.52;;;6.88;;
18304;SDS011;9278;52.156;21.048;2022-08-19T12:25:36;11.68;;;7.35;;
18304;SDS011;9278;52.156;21.048;2022-08-19T12:28:04;13.90;;;7.57;;
18304;SDS011;9278;52.156;21.048;2022-08-19T12:30:32;13.60;;;7.10;;
18304;SDS011;9278;52.156;21.048;2022-08-19T12:33:00;10.68;;;6.88;;
18304;SDS011;9278;52.156;21.048;2022-08-19T12:35:30;16.15;;;7.75;;
18304;SDS011;9278;52.156;21.048;2022-08-19T12:37:58;13.45;;;7.60;;
18304;SDS011;9278;52.156;21.048;2022-08-19T12:40:29;16.42;;;7.65;;
18304;SDS011;9278;52.156;21.048;2022-08-19T12:42:57;21.63;;;7.28;;
18304;SDS011;9278;52.156;21.048;2022-08-19T12:45:25;12.10;;;6.80;;
18304;SDS011;9278;52.156;21.048;2022-08-19T12:47:53;16.42;;;7.00;;
18304;SDS011;9278;52.156;21.048;2022-08-19T12:50:22;14.60;;;6.75;;
18304;SDS011;9278;52.156;21.048;2022-08-19T12:52:51;14.25;;;6.97;;
18304;SDS011;9278;52.156;21.048;2022-08-19T12:55:19;13.13;;;6.53;;
18304;SDS011;9278;52.156;21.048;2022-08-19T12:57:47;17.17;;;6.70;;
18304;SDS011;9278;52.156;21.048;2022-08-19T13:00:18;12.27;;;6.53;;
18304;SDS011;9278;52.156;21.048;2022-08-19T13:02:48;16.13;;;6.38;;
18304;SDS011;9278;52.156;21.048;2022-08-19T13:05:18;10.25;;;5.90;;
18304;SDS011;9278;52.156;21.048;2022-08-19T13:07:49;13.05;;;6.50;;
18304;SDS011;9278;52.156;21.048;2022-08-19T13:10:23;12.90;;;6.53;;
18304;SDS011;9278;52.156;21.048;2022-08-19T13:12:54;11.23;;;6.20;;
18304;SDS011;9278;52.156;21.048;2022-08-19T13:15:22;11.07;;;6.10;;
18304;SDS011;9278;52.156;21.048;2022-08-19T13:17:52;10.80;;;6.93;;
18304;SDS011;9278;52.156;21.048;2022-08-19T13:20:22;12.07;;;7.05;;
18304;SDS011;9278;52.156;21.048;2022-08-19T13:22:52;10.57;;;6.10;;
18304;SDS011;9278;52.156;21.048;2022-08-19T13:25:21;12.18;;;6.57;;
18304;SDS011;9278;52.156;21.048;2022-08-19T13:27:50;11.57;;;6.30;;
18304;SDS011;9278;52.156;21.048;2022-08-19T13:30:19;11.70;;;6.25;;
18304;SDS011;9278;52.156;21.048;2022-08-19T13:33:06;10.10;;;6.10;;
18304;SDS011;9278;52.156;21.048;2022-08-19T13:35:42;10.50;;;5.60;;
18304;SDS011;9278;52.156;21.048;2022-08-19T13:38:14;12.40;;;6.45;;
18304;SDS011;9278;52.156;21.048;2022-08-19T13:40:45;13.00;;;6.53;;
18304;SDS011;9278;52.156;21.048;2022-08-19T13:43:13;14.93;;;6.45;;
18304;SDS011;9278;52.156;21.048;2022-08-19T13:45:49;13.07;;;5.97;;
18304;SDS011;9278;52.156;21.048;2022-08-19T13:48:19;10.70;;;5.82;;
18304;SDS011;9278;52.156;21.048;2022-08-19T13:50:47;13.32;;;5.95;;
18304;SDS011;9278;52.156;21.048;2022-08-19T13:53:17;13.68;;;5.63;;
18304;SDS011;9278;52.156;21.048;2022-08-19T13:55:45;10.95;;;5.80;;
18304;SDS011;9278;52.156;21.048;2022-08-19T13:58:13;11.85;;;5.60;;
18304;SDS011;9278;52.156;21.048;2022-08-19T14:00:43;14.75;;;5.70;;
18304;SDS011;9278;52.156;21.048;2022-08-19T14:03:13;10.82;;;5.30;;
18304;SDS011;9278;52.156;21.048;2022-08-19T14:05:41;15.88;;;5.80;;
18304;SDS011;9278;52.156;21.048;2022-08-19T14:08:09;9.00;;;5.78;;
18304;SDS011;9278;52.156;21.048;2022-08-19T14:10:41;10.07;;;5.90;;
18304;SDS011;9278;52.156;21.048;2022-08-19T14:13:13;13.35;;;5.90;;
18304;SDS011;9278;52.156;21.048;2022-08-19T14:15:43;18.15;;;5.40;;
18304;SDS011;9278;52.156;21.048;2022-08-19T14:18:12;11.68;;;5.95;;
18304;SDS011;9278;52.156;21.048;2022-08-19T14:20:41;12.48;;;5.43;;
18304;SDS011;9278;52.156;21.048;2022-08-19T14:23:09;12.75;;;5.07;;
18304;SDS011;9278;52.156;21.048;2022-08-19T14:25:38;14.75;;;5.25;;
18304;SDS011;9278;52.156;21.048;2022-08-19T14:28:08;14.75;;;5.30;;
18304;SDS011;9278;52.156;21.048;2022-08-19T14:30:36;13.23;;;5.32;;
18304;SDS011;9278;52.156;21.048;2022-08-19T14:33:05;15.68;;;4.90;;
18304;SDS011;9278;52.156;21.048;2022-08-19T14:35:35;11.43;;;4.80;;
18304;SDS011;9278;52.156;21.048;2022-08-19T14:38:04;11.73;;;5.20;;
18304;SDS011;9278;52.156;21.048;2022-08-19T14:40:40;13.57;;;5.20;;
18304;SDS011;9278;52.156;21.048;2022-08-19T14:43:09;8.73;;;4.57;;
18304;SDS011;9278;52.156;21.048;2022-08-19T14:45:38;13.27;;;5.57;;
18304;SDS011;9278;52.156;21.048;2022-08-19T14:48:09;13.68;;;5.22;;
18304;SDS011;9278;52.156;21.048;2022-08-19T14:50:44;14.30;;;5.32;;